createdAt,value
2022-10-18T00:01:49.090Z,99.90
2022-10-18T00:04:18.865Z,99.90
2022-10-18T00:06:47.279Z,99.90
2022-10-18T00:09:15.444Z,99.90
2022-10-18T00:11:43.741Z,99.90
2022-10-18T00:14:12.000Z,99.90
2022-10-18T00:16:40.244Z,99.90
2022-10-18T00:19:08.412Z,99.90
2022-10-18T00:21:38.287Z,99.90
2022-10-18T00:24:07.326Z,99.90
2022-10-18T00:26:35.507Z,99.90
2022-10-18T00:29:06.248Z,99.90
2022-10-18T00:31:36.737Z,99.90
2022-10-18T00:34:06.688Z,99.90
2022-10-18T00:36:35.853Z,99.90
2022-10-18T00:39:09.008Z,99.90
2022-10-18T00:41:39.176Z,99.90
2022-10-18T00:44:28.498Z,99.90
2022-10-18T00:46:59.242Z,99.90
2022-10-18T00:49:33.045Z,99.90
2022-10-18T00:52:04.789Z,99.90
2022-10-18T00:54:37.133Z,99.90
2022-10-18T00:57:06.775Z,99.90
2022-10-18T00:59:35.321Z,99.90
2022-10-18T01:02:04.100Z,99.90
2022-10-18T01:04:32.388Z,99.90
2022-10-18T01:07:04.946Z,99.90
2022-10-18T01:09:41.029Z,99.90
2022-10-18T01:12:23.578Z,99.90
2022-10-18T01:14:59.028Z,99.90
2022-10-18T01:17:34.570Z,99.90
2022-10-18T01:20:34.757Z,99.90
2022-10-18T01:23:07.373Z,99.90
2022-10-18T01:25:43.720Z,99.90
2022-10-18T01:28:26.159Z,99.90
2022-10-18T01:31:00.752Z,99.90
2022-10-18T01:33:36.525Z,99.90
2022-10-18T01:36:11.225Z,99.90
2022-10-18T01:38:40.990Z,99.90
2022-10-18T01:41:15.607Z,99.90
2022-10-18T01:43:46.760Z,99.90
2022-10-18T01:46:20.350Z,99.90
2022-10-18T01:48:49.733Z,99.90
2022-10-18T01:51:21.527Z,99.90
2022-10-18T01:53:49.759Z,99.90
2022-10-18T01:56:31.454Z,99.90
2022-10-18T01:59:12.352Z,99.90
2022-10-18T02:01:52.303Z,99.90
2022-10-18T02:04:28.572Z,99.90
2022-10-18T02:07:03.712Z,99.90
2022-10-18T02:09:39.806Z,99.90
2022-10-18T02:12:11.856Z,99.90
2022-10-18T02:14:42.717Z,99.90
2022-10-18T02:17:15.077Z,99.90
2022-10-18T02:19:47.140Z,99.90
2022-10-18T02:22:16.844Z,99.90
2022-10-18T02:24:49.799Z,99.90
2022-10-18T02:27:18.421Z,99.90
2022-10-18T02:29:47.968Z,99.90
2022-10-18T02:32:22.515Z,99.90
2022-10-18T02:34:58.386Z,99.90
2022-10-18T02:37:30.274Z,99.90
2022-10-18T02:39:59.438Z,99.90
2022-10-18T02:42:36.175Z,99.90
2022-10-18T02:45:05.042Z,99.90
2022-10-18T02:47:37.440Z,99.90
2022-10-18T02:50:06.764Z,99.90
2022-10-18T02:52:35.503Z,99.90
2022-10-18T02:55:08.010Z,99.90
2022-10-18T02:57:42.632Z,99.90
2022-10-18T03:00:12.240Z,99.90
2022-10-18T03:02:42.049Z,99.90
2022-10-18T03:05:13.152Z,99.90
2022-10-18T03:07:44.132Z,99.90
2022-10-18T03:10:12.719Z,99.90
2022-10-18T03:12:42.236Z,99.90
2022-10-18T03:15:32.881Z,99.90
2022-10-18T03:18:11.465Z,99.90
2022-10-18T03:20:39.709Z,99.90
2022-10-18T03:25:36.568Z,99.90
2022-10-18T03:28:05.170Z,99.90
2022-10-18T03:30:33.275Z,99.90
2022-10-18T03:33:01.477Z,99.90
2022-10-18T03:35:31.191Z,99.90
2022-10-18T03:37:59.405Z,99.90
2022-10-18T03:40:27.790Z,99.90
2022-10-18T03:42:56.093Z,99.90
2022-10-18T03:45:28.826Z,99.90
2022-10-18T03:47:59.421Z,99.90
2022-10-18T03:50:27.559Z,99.90
2022-10-18T03:52:57.292Z,99.90
2022-10-18T03:55:25.728Z,99.90
2022-10-18T03:57:53.986Z,99.90
2022-10-18T04:00:22.799Z,99.90
2022-10-18T04:02:53.505Z,99.90
2022-10-18T04:05:27.020Z,99.90
2022-10-18T04:07:56.845Z,99.90
2022-10-18T04:10:26.588Z,99.90
2022-10-18T04:12:56.856Z,99.90
2022-10-18T04:15:25.129Z,99.90
2022-10-18T04:17:53.264Z,99.90
2022-10-18T04:20:21.710Z,99.90
2022-10-18T04:22:50.231Z,99.90
2022-10-18T04:25:20.047Z,99.90
2022-10-18T04:27:48.243Z,99.90
2022-10-18T04:30:16.539Z,99.90
2022-10-18T04:32:44.696Z,99.90
2022-10-18T04:35:12.923Z,99.90
2022-10-18T04:37:41.142Z,99.90
2022-10-18T04:40:10.785Z,99.90
2022-10-18T04:42:40.424Z,99.90
2022-10-18T04:45:09.803Z,99.90
2022-10-18T04:47:38.023Z,99.90
2022-10-18T04:50:07.227Z,99.90
2022-10-18T04:52:35.368Z,99.90
2022-10-18T04:55:03.488Z,99.90
2022-10-18T04:57:32.106Z,99.90
2022-10-18T05:00:02.005Z,99.90
2022-10-18T05:02:30.562Z,99.90
2022-10-18T05:04:59.063Z,99.90
2022-10-18T05:07:27.229Z,99.90
2022-10-18T05:09:55.435Z,99.90
2022-10-18T05:12:23.643Z,99.90
2022-10-18T05:14:51.894Z,99.90
2022-10-18T05:17:21.574Z,99.90
2022-10-18T05:19:49.796Z,99.90
2022-10-18T05:22:17.990Z,99.90
2022-10-18T05:24:46.209Z,99.90
2022-10-18T05:27:14.437Z,99.90
2022-10-18T05:29:42.632Z,99.90
2022-10-18T05:32:10.889Z,99.90
2022-10-18T05:34:40.554Z,99.90
2022-10-18T05:37:08.660Z,99.90
2022-10-18T05:39:38.036Z,99.90
2022-10-18T05:42:06.543Z,99.90
2022-10-18T05:44:34.721Z,99.90
2022-10-18T05:47:02.885Z,99.90
2022-10-18T05:49:31.129Z,99.90
2022-10-18T05:52:00.829Z,99.90
2022-10-18T05:54:28.939Z,99.90
2022-10-18T05:56:57.108Z,99.90
2022-10-18T05:59:25.476Z,99.90
2022-10-18T06:01:53.654Z,99.90
2022-10-18T06:04:22.059Z,99.90
2022-10-18T06:06:52.095Z,99.90
2022-10-18T06:09:21.857Z,99.90
2022-10-18T06:11:50.021Z,99.90
2022-10-18T06:14:18.177Z,99.90
2022-10-18T06:16:46.448Z,99.90
2022-10-18T06:19:14.709Z,99.90
2022-10-18T06:21:43.990Z,99.90
2022-10-18T06:24:12.293Z,99.90
2022-10-18T06:26:42.005Z,99.90
2022-10-18T06:29:10.266Z,99.90
2022-10-18T06:31:38.700Z,99.90
2022-10-18T06:34:07.052Z,99.90
2022-10-18T06:36:35.222Z,99.90
2022-10-18T06:39:03.585Z,99.90
2022-10-18T06:41:31.801Z,99.90
2022-10-18T06:44:07.156Z,99.90
2022-10-18T06:46:35.396Z,99.90
2022-10-18T06:49:03.636Z,99.90
2022-10-18T06:51:32.055Z,99.90
2022-10-18T06:54:16.770Z,99.90
2022-10-18T06:56:45.979Z,99.90
2022-10-18T06:59:15.878Z,99.90
2022-10-18T07:01:44.626Z,99.90
2022-10-18T07:04:14.728Z,99.90
2022-10-18T07:06:42.952Z,99.90
2022-10-18T07:09:13.062Z,99.90
2022-10-18T07:11:41.272Z,99.90
2022-10-18T07:14:12.718Z,99.90
2022-10-18T07:16:46.098Z,99.90
2022-10-18T07:19:15.127Z,99.90
2022-10-18T07:21:43.574Z,99.90
2022-10-18T07:24:11.849Z,99.90
2022-10-18T07:26:40.254Z,99.90
2022-10-18T07:29:10.752Z,99.90
2022-10-18T07:31:41.075Z,99.90
2022-10-18T07:34:13.470Z,99.90
2022-10-18T07:36:47.658Z,99.90
2022-10-18T07:39:16.065Z,99.90
2022-10-18T07:41:44.526Z,99.90
2022-10-18T07:44:12.891Z,99.90
2022-10-18T07:46:41.258Z,99.90
2022-10-18T07:49:11.246Z,99.90
2022-10-18T07:51:39.471Z,99.90
2022-10-18T07:54:07.785Z,99.90
2022-10-18T07:56:36.117Z,99.90
2022-10-18T07:59:04.311Z,99.90
2022-10-18T08:01:32.674Z,99.90
2022-10-18T08:04:07.004Z,99.90
2022-10-18T08:06:43.974Z,99.90
2022-10-18T08:09:13.950Z,99.90
2022-10-18T08:11:42.291Z,99.90
2022-10-18T08:14:10.559Z,99.90
2022-10-18T08:16:39.007Z,99.90
2022-10-18T08:19:07.339Z,99.90
2022-10-18T08:21:35.663Z,99.90
2022-10-18T08:24:06.156Z,99.90
2022-10-18T08:26:34.441Z,99.90
2022-10-18T08:29:23.333Z,99.90
2022-10-18T08:31:51.510Z,99.90
2022-10-18T08:34:20.104Z,99.90
2022-10-18T08:36:48.542Z,99.90
2022-10-18T08:39:18.357Z,99.90
2022-10-18T08:42:11.045Z,99.90
2022-10-18T08:44:46.250Z,99.90
2022-10-18T08:47:18.233Z,99.90
2022-10-18T08:49:51.787Z,99.90
2022-10-18T08:52:29.647Z,99.90
2022-10-18T08:55:03.472Z,99.90
2022-10-18T08:57:36.459Z,99.90
2022-10-18T09:00:16.275Z,99.90
2022-10-18T09:02:58.702Z,99.90
2022-10-18T09:05:32.527Z,99.90
2022-10-18T09:08:24.086Z,99.90
2022-10-18T09:11:05.765Z,99.90
2022-10-18T09:14:14.692Z,99.90
2022-10-18T09:16:50.707Z,99.90
2022-10-18T09:19:31.688Z,99.90
2022-10-18T09:22:08.964Z,99.90
2022-10-18T09:24:43.666Z,99.90
2022-10-18T09:27:17.502Z,99.90
2022-10-18T09:30:03.390Z,99.90
2022-10-18T09:32:42.860Z,99.90
2022-10-18T09:35:18.279Z,99.90
2022-10-18T09:37:49.654Z,99.90
2022-10-18T09:40:22.740Z,99.90
2022-10-18T09:42:59.878Z,99.90
2022-10-18T09:45:32.353Z,99.90
2022-10-18T09:48:08.559Z,99.90
2022-10-18T09:50:41.377Z,99.90
2022-10-18T09:53:16.609Z,99.90
2022-10-18T09:56:02.465Z,99.90
2022-10-18T09:58:45.611Z,99.90
2022-10-18T10:01:16.857Z,99.90
2022-10-18T10:03:45.095Z,99.90
2022-10-18T10:06:27.299Z,99.90
2022-10-18T10:09:00.085Z,99.90
2022-10-18T10:11:40.341Z,99.90
2022-10-18T10:16:51.388Z,99.90
2022-10-18T10:19:23.564Z,99.90
2022-10-18T10:21:56.156Z,99.90
2022-10-18T10:24:31.333Z,99.90
2022-10-18T10:27:08.710Z,99.90
2022-10-18T10:30:01.405Z,99.90
2022-10-18T10:32:46.734Z,99.90
2022-10-18T10:35:35.280Z,99.90
2022-10-18T10:38:25.050Z,99.90
2022-10-18T10:40:55.854Z,99.90
2022-10-18T10:43:43.777Z,99.90
2022-10-18T10:46:15.704Z,99.90
2022-10-18T10:48:50.749Z,99.90
2022-10-18T10:51:31.819Z,99.90
2022-10-18T10:54:03.765Z,99.90
2022-10-18T10:56:34.239Z,99.90
2022-10-18T10:59:11.186Z,99.90
2022-10-18T11:01:43.655Z,99.90
2022-10-18T11:04:32.106Z,99.90
2022-10-18T11:07:07.987Z,99.90
2022-10-18T11:09:58.254Z,99.90
2022-10-18T11:12:42.308Z,99.90
2022-10-18T11:15:35.291Z,99.90
2022-10-18T11:18:23.989Z,99.90
2022-10-18T11:20:59.443Z,99.90
2022-10-18T11:23:32.860Z,99.90
2022-10-18T11:26:26.837Z,99.90
2022-10-18T11:29:24.585Z,99.90
2022-10-18T11:32:04.390Z,99.90
2022-10-18T11:34:50.410Z,99.30
2022-10-18T11:37:42.642Z,99.60
2022-10-18T11:40:30.904Z,99.40
2022-10-18T11:43:11.257Z,99.40
2022-10-18T11:45:46.747Z,99.10
2022-10-18T11:48:52.205Z,98.90
2022-10-18T11:51:38.712Z,97.90
2022-10-18T11:54:32.656Z,98.40
2022-10-18T11:57:14.274Z,97.50
2022-10-18T11:59:54.276Z,97.80
2022-10-18T12:02:42.324Z,97.20
2022-10-18T12:05:28.733Z,98.10
2022-10-18T12:08:06.473Z,96.60
2022-10-18T12:10:52.615Z,97.80
2022-10-18T12:13:35.402Z,96.00
2022-10-18T12:16:06.400Z,96.20
2022-10-18T12:18:37.587Z,95.90
2022-10-18T12:21:08.085Z,97.30
2022-10-18T12:23:48.054Z,96.50
2022-10-18T12:26:17.760Z,95.60
2022-10-18T12:28:55.281Z,96.10
2022-10-18T12:31:28.190Z,95.10
2022-10-18T12:34:01.067Z,95.30
2022-10-18T12:36:47.347Z,94.50
2022-10-18T12:39:33.435Z,94.40
2022-10-18T12:42:23.143Z,94.40
2022-10-18T12:45:01.321Z,94.50
2022-10-18T12:47:31.519Z,95.60
2022-10-18T12:50:03.255Z,95.60
2022-10-18T12:52:34.729Z,95.60
2022-10-18T12:55:27.902Z,93.80
2022-10-18T12:58:25.071Z,93.90
2022-10-18T13:01:02.539Z,95.00
2022-10-18T13:08:01.421Z,93.80
2022-10-18T13:10:59.661Z,94.00
2022-10-18T13:14:13.367Z,93.20
2022-10-18T13:16:48.463Z,93.80
2022-10-18T13:19:36.243Z,94.90
2022-10-18T13:22:27.217Z,94.80
2022-10-18T13:25:09.606Z,93.30
2022-10-18T13:30:42.763Z,94.00
2022-10-18T13:33:32.488Z,94.00
2022-10-18T13:36:01.839Z,93.80
2022-10-18T13:39:02.152Z,94.00
2022-10-18T13:41:34.518Z,92.90
2022-10-18T13:44:26.183Z,92.90
2022-10-18T13:47:35.936Z,94.70
2022-10-18T13:50:29.765Z,93.90
2022-10-18T13:53:36.535Z,94.10
2022-10-18T13:56:37.167Z,94.50
2022-10-18T13:59:28.108Z,94.30
2022-10-18T14:02:15.087Z,94.80
2022-10-18T14:05:23.183Z,94.70
2022-10-18T14:07:56.220Z,94.00
2022-10-18T14:10:43.901Z,95.10
2022-10-18T14:13:22.804Z,95.50
2022-10-18T14:15:57.445Z,95.00
2022-10-18T14:18:31.830Z,93.80
2022-10-18T14:21:15.275Z,96.20
2022-10-18T14:23:46.678Z,96.60
2022-10-18T14:26:17.675Z,96.10
2022-10-18T14:29:01.964Z,95.60
2022-10-18T14:31:31.135Z,95.90
2022-10-18T14:34:00.918Z,96.70
2022-10-18T14:36:35.845Z,96.50
2022-10-18T14:39:06.229Z,97.00
2022-10-18T14:41:36.005Z,97.20
2022-10-18T14:44:19.635Z,97.50
2022-10-18T14:46:49.527Z,97.50
2022-10-18T14:49:19.782Z,97.60
2022-10-18T14:51:52.577Z,97.90
2022-10-18T14:54:27.625Z,99.10
2022-10-18T14:57:00.737Z,98.20
2022-10-18T14:59:31.875Z,98.50
2022-10-18T15:02:02.212Z,99.40
2022-10-18T15:04:33.218Z,99.90
2022-10-18T15:07:05.822Z,99.90
2022-10-18T15:09:36.511Z,99.90
2022-10-18T15:12:06.609Z,99.90
2022-10-18T15:14:36.123Z,99.90
2022-10-18T15:17:08.862Z,99.90
2022-10-18T15:19:39.546Z,99.90
2022-10-18T15:22:30.676Z,99.90
2022-10-18T15:25:14.545Z,99.90
2022-10-18T15:27:46.346Z,99.90
2022-10-18T15:30:24.687Z,99.90
2022-10-18T15:32:55.122Z,99.90
2022-10-18T15:35:27.536Z,99.90
2022-10-18T15:38:00.284Z,99.90
2022-10-18T15:40:40.794Z,99.90
2022-10-18T15:43:39.711Z,99.90
2022-10-18T15:46:07.924Z,99.90
2022-10-18T15:48:38.893Z,99.90
2022-10-18T15:51:08.221Z,99.90
2022-10-18T15:53:44.593Z,99.90
2022-10-18T15:56:28.462Z,99.90
2022-10-18T15:58:58.432Z,99.90
2022-10-18T16:01:34.548Z,99.90
2022-10-18T16:04:08.075Z,99.90
2022-10-18T16:06:38.580Z,99.90
2022-10-18T16:09:08.532Z,99.90
2022-10-18T16:11:36.672Z,99.90
2022-10-18T16:14:04.891Z,99.90
2022-10-18T16:16:33.124Z,99.90
2022-10-18T16:19:01.760Z,99.90
2022-10-18T16:21:32.248Z,99.90
2022-10-18T16:24:00.851Z,99.90
2022-10-18T16:26:31.189Z,99.90
2022-10-18T16:29:00.312Z,99.90
2022-10-18T16:31:30.918Z,99.90
2022-10-18T16:33:59.878Z,99.90
2022-10-18T16:36:30.147Z,99.90
2022-10-18T16:39:00.920Z,99.90
2022-10-18T16:41:30.678Z,99.90
2022-10-18T16:43:58.868Z,99.90
2022-10-18T16:46:29.667Z,99.90
2022-10-18T16:48:58.658Z,99.90
2022-10-18T16:51:27.655Z,99.90
2022-10-18T16:53:56.351Z,99.90
2022-10-18T16:56:28.177Z,99.90
2022-10-18T16:58:58.977Z,99.90
2022-10-18T17:01:27.698Z,99.90
2022-10-18T17:03:56.037Z,99.90
2022-10-18T17:06:27.435Z,99.90
2022-10-18T17:08:56.968Z,99.90
2022-10-18T17:11:27.095Z,99.90
2022-10-18T17:13:57.296Z,99.90
2022-10-18T17:18:57.523Z,99.90
2022-10-18T17:21:27.151Z,99.90
2022-10-18T17:23:55.369Z,99.90
2022-10-18T17:26:28.867Z,99.90
2022-10-18T17:29:46.271Z,99.90
2022-10-18T17:32:41.957Z,99.90
2022-10-18T17:35:34.861Z,99.90
2022-10-18T17:38:07.873Z,99.90
2022-10-18T17:44:38.214Z,99.90
2022-10-18T17:47:49.155Z,99.90
2022-10-18T17:56:53.811Z,99.90
2022-10-18T18:02:26.060Z,99.90
2022-10-18T18:05:05.030Z,99.90
2022-10-18T18:08:02.874Z,99.90
2022-10-18T18:10:55.654Z,99.90
2022-10-18T18:13:33.472Z,99.90
2022-10-18T18:16:49.309Z,99.90
2022-10-18T18:20:00.242Z,99.90
2022-10-18T18:23:17.011Z,99.90
2022-10-18T18:26:12.289Z,99.90
2022-10-18T18:28:55.415Z,99.90
2022-10-18T18:32:14.741Z,99.90
2022-10-18T18:35:33.982Z,99.90
2022-10-18T18:39:27.207Z,99.90
2022-10-18T18:42:02.495Z,99.90
2022-10-18T18:44:48.885Z,99.90
2022-10-18T18:47:30.965Z,99.90
2022-10-18T18:50:42.997Z,99.90
2022-10-18T18:56:52.588Z,99.90
2022-10-18T19:00:24.415Z,99.90
2022-10-18T19:03:36.654Z,99.90
2022-10-18T19:06:31.164Z,99.90
2022-10-18T19:12:20.537Z,99.90
2022-10-18T19:15:24.694Z,99.90
2022-10-18T19:18:15.203Z,99.90
2022-10-18T19:20:56.297Z,99.90
2022-10-18T19:27:28.621Z,99.90
2022-10-18T19:30:08.840Z,99.90
2022-10-18T19:33:41.376Z,99.90
2022-10-18T19:36:42.765Z,99.90
2022-10-18T19:42:33.606Z,99.90
2022-10-18T19:46:48.475Z,99.90
2022-10-18T19:49:06.698Z,99.90
2022-10-18T20:02:07.929Z,99.90
2022-10-18T20:04:41.761Z,99.90
2022-10-18T20:07:16.176Z,99.90
2022-10-18T20:09:50.964Z,99.90
2022-10-18T20:15:41.908Z,99.90
2022-10-18T20:18:32.523Z,99.90
2022-10-18T20:21:10.171Z,99.90
2022-10-18T20:23:44.337Z,99.90
2022-10-18T20:26:31.506Z,99.90
2022-10-18T20:29:46.274Z,99.90
2022-10-18T20:32:52.547Z,99.90
2022-10-18T20:35:26.722Z,99.90
2022-10-18T20:38:06.528Z,99.90
2022-10-18T20:43:31.101Z,99.90
2022-10-18T20:46:09.700Z,99.90
2022-10-18T20:48:41.491Z,99.90
2022-10-18T20:51:52.504Z,99.90
2022-10-18T20:57:45.584Z,99.90
2022-10-18T21:00:41.615Z,99.90
2022-10-18T21:03:17.521Z,99.90
2022-10-18T21:06:07.093Z,99.90
2022-10-18T21:08:48.154Z,99.90
2022-10-18T21:11:30.723Z,99.90
2022-10-18T21:17:37.016Z,99.90
2022-10-18T21:23:29.221Z,99.90
2022-10-18T21:29:38.943Z,99.90
2022-10-18T21:35:23.020Z,99.90
2022-10-18T21:38:10.230Z,99.90
2022-10-18T21:40:45.210Z,99.90
2022-10-18T21:43:24.906Z,99.90
2022-10-18T21:46:01.912Z,99.90
2022-10-18T21:48:44.293Z,99.90
2022-10-18T21:57:08.033Z,99.90
2022-10-18T21:59:36.939Z,99.90
2022-10-18T22:02:11.383Z,99.90
2022-10-18T22:11:16.005Z,99.90
2022-10-18T22:13:51.470Z,99.90
2022-10-18T22:16:36.693Z,99.90
2022-10-18T22:19:06.994Z,99.90
2022-10-18T22:21:36.652Z,99.90
2022-10-18T22:24:14.563Z,99.90
2022-10-18T22:29:45.590Z,99.90
2022-10-18T22:32:56.976Z,99.90
2022-10-18T22:35:25.196Z,99.90
2022-10-18T22:37:57.378Z,99.90
2022-10-18T22:40:30.703Z,99.90
2022-10-18T22:43:02.340Z,99.90
2022-10-18T22:45:34.029Z,99.90
2022-10-18T22:48:05.431Z,99.90
2022-10-18T22:50:42.985Z,99.90
2022-10-18T22:53:27.807Z,99.90
2022-10-18T22:55:57.734Z,99.90
2022-10-18T22:58:29.779Z,99.90
2022-10-18T23:01:07.114Z,99.90
2022-10-18T23:03:35.995Z,99.90
2022-10-18T23:06:07.389Z,99.90
2022-10-18T23:08:38.992Z,99.90
2022-10-18T23:11:14.052Z,99.90
2022-10-18T23:15:31.103Z,99.90
2022-10-18T23:16:45.006Z,99.90
2022-10-18T23:19:21.814Z,99.90
2022-10-18T23:21:53.688Z,99.90
2022-10-18T23:24:22.401Z,99.90
2022-10-18T23:26:55.237Z,99.90
2022-10-18T23:29:26.211Z,99.90
2022-10-18T23:31:59.016Z,99.90
2022-10-18T23:35:07.978Z,99.90
2022-10-18T23:37:38.804Z,99.90
2022-10-18T23:40:17.901Z,99.90
2022-10-18T23:42:48.470Z,99.90
2022-10-18T23:45:19.982Z,99.90
2022-10-18T23:47:48.775Z,99.90
2022-10-18T23:50:22.755Z,99.90
2022-10-18T23:52:51.442Z,99.90
2022-10-18T23:55:20.261Z,99.90
2022-10-18T23:57:53.436Z,99.90
